This is the latest recevied weather packets stored in our database for station/object SP2ARK-10. If no packets are shown the sender has not sent any weather packets the latest 10 day(s).
| Time | Temp. | Humidity | Pressure | Rain* | Wind** | Luminosity | Snow |
|---|---|---|---|---|---|---|---|
| 1777695502 | 11.67° C | 71% | 1029.9 hPa | - | - | - | - |
| 1777694602 | 11.67° C | 73% | 1029.9 hPa | - | - | - | - |
| 1777693701 | 12.22° C | 81% | 1029.8 hPa | - | - | - | - |
| 1777692800 | 11.67° C | 69% | 1030 hPa | - | - | - | - |
| 1777691900 | 11.67° C | 69% | 1029.9 hPa | - | - | - | - |
| 1777690998 | 12.22° C | 69% | 1030 hPa | - | - | - | - |
| 1777690098 | 12.22° C | 69% | 1030 hPa | - | - | - | - |
| 1777689198 | 12.78° C | 68% | 1029.9 hPa | - | - | - | - |
| 1777688297 | 12.78° C | 68% | 1030 hPa | - | - | - | - |
| 1777687395 | 12.78° C | 68% | 1030.1 hPa | - | - | - | - |
| 1777686494 | 12.78° C | 67% | 1030.2 hPa | - | - | - | - |
| 1777685594 | 13.33° C | 67% | 1030.2 hPa | - | - | - | - |
| 1777684693 | 13.33° C | 67% | 1030.2 hPa | - | - | - | - |
| 1777683792 | 13.33° C | 66% | 1030.2 hPa | - | - | - | - |
| 1777682892 | 13.89° C | 66% | 1030.2 hPa | - | - | - | - |
| 1777681991 | 13.89° C | 66% | 1030.4 hPa | - | - | - | - |
| 1777681089 | 13.89° C | 66% | 1030.4 hPa | - | - | - | - |
| 1777680189 | 14.44° C | 66% | 1030.3 hPa | - | - | - | - |
| 1777679288 | 14.44° C | 65% | 1030.3 hPa | - | - | - | - |
| 1777678388 | 15° C | 65% | 1030.4 hPa | - | - | - | - |
| 1777677487 | 15° C | 65% | 1030.5 hPa | - | - | - | - |
| 1777676586 | 15° C | 64% | 1030.6 hPa | - | - | - | - |
| 1777675685 | 15.56° C | 64% | 1030.5 hPa | - | - | - | - |
| 1777674785 | 15.56° C | 64% | 1030.5 hPa | - | - | - | - |
| 1777673916 | 15.56° C | 65% | 1030.5 hPa | - | - | - | - |
* Rain since midnight (hover to see other rain measurements)
** Current wind speed in m/s (hover to see current wind gust speed)